Punta de Agua, Argentina
Current Conditions -  °F | °C
As of 9:00 AM on Tuesday 21 Oct 2014 (Local Time) from SCAT Reporting Station
Overcast Overcast  
Wind Chill: 57°   Ceiling: 1500
Heat Index: 57°   Visibility: 6mi
Dew Point: 52°   Wind: 13mph
Humidity: 82%   Direction: 320°NW
Pressure: 30.06"   Gusts: NA
Location:  28.6°S, 68.65°W
Report Text: SCAT 211200Z 32011KT 9999 OVC015 14/11 Q1018
Loading
Personal Weather Stations






























Interactive Weather Map
Tropical Storm Tracking
New forecast layout! Learn more

10-Day Weather Forecast

Advertisements
Track Severe Weather on mobile